Time;durP1;ratioP1;P1;durP2;ratioP2;P2;SDS_P1;SDS_P2;PMS_P1;PMS_P2;Temp;Humidity;BMP_temperature;BMP_pressure;BME280_temperature;BME280_humidity;BME280_pressure;Samples;Min_cycle;Max_cycle;Signal;HPM_P1;HPM_P2
2021/06/10 00:02:14;;;;;;;12.47;8.77;;;18.90;99.90;;;;;;5052204;28;20220;-76
2021/06/10 00:04:39;;;;;;;13.33;8.83;;;18.80;99.90;;;;;;5052254;28;20618;-76
2021/06/10 00:07:05;;;;;;;11.00;8.60;;;18.80;99.90;;;;;;5019409;28;20201;-75
2021/06/10 00:09:31;;;;;;;11.43;8.60;;;18.70;99.90;;;;;;5051784;28;20244;-75
2021/06/10 00:11:57;;;;;;;12.67;9.23;;;18.70;99.90;;;;;;5035582;28;20202;-76
2021/06/10 00:14:22;;;;;;;12.93;9.80;;;18.70;99.90;;;;;;5052071;28;20177;-76
2021/06/10 00:16:48;;;;;;;12.37;9.00;;;18.60;99.90;;;;;;5018902;28;20169;-76
2021/06/10 00:19:13;;;;;;;13.20;9.60;;;18.50;99.90;;;;;;5051802;28;20715;-75
2021/06/10 00:21:40;;;;;;;12.97;9.23;;;18.50;99.90;;;;;;5052005;28;20174;-75
2021/06/10 00:24:06;;;;;;;13.43;9.17;;;18.50;99.90;;;;;;5035520;28;20695;-75
2021/06/10 00:26:31;;;;;;;13.90;8.90;;;18.50;99.90;;;;;;5035412;28;20185;-75
2021/06/10 00:28:57;;;;;;;13.10;9.50;;;18.50;99.90;;;;;;5035085;28;20197;-75
2021/06/10 00:31:22;;;;;;;13.97;10.00;;;18.50;99.90;;;;;;5034943;28;20201;-75
2021/06/10 00:33:48;;;;;;;13.30;9.43;;;18.50;99.90;;;;;;5035362;28;20281;-76
2021/06/10 00:36:14;;;;;;;12.87;10.57;;;18.50;99.90;;;;;;5052916;28;20210;-75
2021/06/10 00:38:39;;;;;;;13.93;9.73;;;18.50;99.90;;;;;;5050664;28;20205;-75
2021/06/10 00:41:05;;;;;;;14.07;9.40;;;18.50;99.90;;;;;;5034961;28;20193;-75
2021/06/10 00:43:30;;;;;;;13.57;10.10;;;18.50;99.90;;;;;;5052813;28;20265;-76
2021/06/10 00:45:56;;;;;;;14.33;10.23;;;18.40;99.90;;;;;;5051351;28;20174;-75
2021/06/10 00:48:22;;;;;;;13.23;9.73;;;18.40;99.90;;;;;;5051396;28;20695;-75
2021/06/10 00:50:48;;;;;;;15.13;10.80;;;18.40;99.90;;;;;;5034532;28;20225;-75
2021/06/10 00:53:21;;;;;;;14.60;10.03;;;18.30;99.90;;;;;;5034725;28;20185;-76
2021/06/10 00:55:51;;;;;;;14.37;10.27;;;18.30;99.90;;;;;;5035756;28;20173;-76
2021/06/10 00:58:16;;;;;;;14.13;10.33;;;18.30;99.90;;;;;;5034561;28;20243;-75
2021/06/10 01:00:42;;;;;;;15.43;9.90;;;18.20;99.90;;;;;;5050935;28;20182;-75
2021/06/10 01:03:08;;;;;;;15.37;10.57;;;18.20;99.90;;;;;;5052361;28;20175;-75
2021/06/10 01:05:33;;;;;;;15.80;10.67;;;18.10;99.90;;;;;;5051353;28;20192;-75
2021/06/10 01:08:05;;;;;;;14.53;10.23;;;18.00;99.90;;;;;;5051171;28;20197;-75
2021/06/10 01:10:55;;;;;;;15.87;10.47;;;18.00;99.90;;;;;;5051873;28;20301;-75
2021/06/10 01:13:41;;;;;;;15.30;11.37;;;18.00;99.90;;;;;;5050833;28;20175;-76
2021/06/10 01:16:08;;;;;;;15.07;10.17;;;18.00;99.90;;;;;;5038054;28;20191;-75
2021/06/10 01:18:33;;;;;;;14.03;9.93;;;18.00;99.90;;;;;;5050878;28;20187;-76
2021/06/10 01:20:59;;;;;;;14.23;10.37;;;17.90;99.90;;;;;;5018118;28;20189;-75
2021/06/10 01:23:52;;;;;;;16.47;10.50;;;17.90;99.90;;;;;;5050845;28;20182;-75
2021/06/10 01:27:02;;;;;;;14.23;10.10;;;17.90;99.90;;;;;;5050986;28;20166;-75
2021/06/10 01:29:27;;;;;;;14.20;10.07;;;17.80;99.90;;;;;;5016135;28;20237;-76
2021/06/10 01:31:53;;;;;;;12.33;9.97;;;17.80;99.90;;;;;;5050879;28;20252;-75
2021/06/10 01:34:19;;;;;;;16.57;11.10;;;17.70;99.90;;;;;;5034347;28;20185;-76
2021/06/10 01:36:45;;;;;;;16.13;11.10;;;17.60;99.90;;;;;;5034325;28;20174;-76
2021/06/10 01:39:22;;;;;;;15.43;11.07;;;17.60;99.90;;;;;;5050582;28;20289;-76
2021/06/10 01:41:47;;;;;;;15.47;11.27;;;17.60;99.90;;;;;;5050716;28;20665;-76
2021/06/10 01:44:13;;;;;;;15.47;11.13;;;17.60;99.90;;;;;;5050690;28;20224;-75
2021/06/10 01:46:39;;;;;;;17.07;10.40;;;17.50;99.90;;;;;;5034180;28;20224;-75
2021/06/10 01:49:06;;;;;;;16.03;11.47;;;17.40;99.90;;;;;;5035047;28;20197;-76
2021/06/10 01:51:31;;;;;;;15.07;10.73;;;17.40;99.90;;;;;;5038046;28;20619;-75
2021/06/10 01:53:58;;;;;;;14.37;10.93;;;17.40;99.90;;;;;;5038200;28;20280;-75
2021/06/10 01:56:24;;;;;;;16.07;10.53;;;17.40;99.90;;;;;;5054753;28;20260;-76
2021/06/10 01:58:50;;;;;;;13.97;10.77;;;17.30;99.90;;;;;;5037919;28;20225;-75
2021/06/10 02:01:16;;;;;;;17.60;11.30;;;17.30;99.90;;;;;;5054487;28;20182;-75
2021/06/10 02:03:43;;;;;;;16.50;11.77;;;17.20;99.90;;;;;;5054913;28;20182;-75
2021/06/10 02:06:09;;;;;;;15.93;11.63;;;17.20;99.90;;;;;;5037831;28;20239;-76
2021/06/10 02:08:36;;;;;;;16.57;12.10;;;17.10;99.90;;;;;;5037860;28;20213;-76
2021/06/10 02:11:01;;;;;;;15.83;11.07;;;17.10;99.90;;;;;;5037465;28;20279;-75
2021/06/10 02:13:28;;;;;;;15.93;11.27;;;17.00;99.90;;;;;;5054422;28;20578;-75
2021/06/10 02:15:56;;;;;;;15.47;11.37;;;17.00;99.90;;;;;;5037766;28;20178;-75
2021/06/10 02:18:21;;;;;;;16.50;11.67;;;17.00;99.90;;;;;;5037628;28;20212;-75
2021/06/10 02:20:47;;;;;;;15.63;11.00;;;17.00;99.90;;;;;;5037385;28;20205;-75
2021/06/10 02:23:13;;;;;;;16.20;11.57;;;16.90;99.90;;;;;;5054323;28;20174;-75
2021/06/10 02:25:38;;;;;;;17.37;12.17;;;16.90;99.90;;;;;;5054293;28;20272;-75
2021/06/10 02:28:04;;;;;;;15.47;11.30;;;16.80;99.90;;;;;;5054390;28;20257;-75
2021/06/10 02:30:30;;;;;;;17.83;11.90;;;16.80;99.90;;;;;;5037109;28;20234;-75
2021/06/10 02:32:56;;;;;;;18.10;11.97;;;16.80;99.90;;;;;;5036805;28;20182;-75
2021/06/10 02:35:22;;;;;;;15.90;10.53;;;16.80;99.90;;;;;;5054074;28;20174;-75
2021/06/10 02:37:49;;;;;;;16.17;11.53;;;16.90;99.90;;;;;;5037339;28;20182;-76
2021/06/10 02:40:18;;;;;;;15.57;10.90;;;16.80;99.90;;;;;;5053746;28;20198;-75
2021/06/10 02:42:44;;;;;;;15.67;10.63;;;16.80;99.90;;;;;;5053960;28;20197;-75
2021/06/10 02:45:10;;;;;;;17.07;11.67;;;16.80;99.90;;;;;;5053919;28;20175;-76
2021/06/10 02:47:36;;;;;;;16.00;11.20;;;16.70;99.90;;;;;;5053850;28;20178;-76
2021/06/10 02:50:04;;;;;;;16.77;12.00;;;16.70;99.90;;;;;;5053373;28;20205;-75
2021/06/10 02:52:30;;;;;;;17.77;12.07;;;16.70;99.90;;;;;;5036953;28;20193;-75
2021/06/10 02:54:55;;;;;;;19.23;12.30;;;16.70;99.90;;;;;;5053681;28;20166;-76
2021/06/10 02:57:21;;;;;;;16.77;12.30;;;16.60;99.90;;;;;;5053732;28;20232;-75
2021/06/10 02:59:46;;;;;;;17.67;12.57;;;16.60;99.90;;;;;;5053326;28;20198;-75
2021/06/10 03:02:12;;;;;;;17.77;12.00;;;16.60;99.90;;;;;;5052673;28;20526;-75
2021/06/10 03:04:40;;;;;;;17.03;11.57;;;16.50;99.90;;;;;;5036870;28;20319;-75
2021/06/10 03:07:06;;;;;;;17.03;12.30;;;16.50;99.90;;;;;;5053353;28;20198;-75
2021/06/10 03:09:32;;;;;;;16.37;11.67;;;16.50;99.90;;;;;;5049593;28;20246;-75
2021/06/10 03:11:58;;;;;;;17.73;11.73;;;16.50;99.90;;;;;;5033367;28;20203;-75
2021/06/10 03:14:23;;;;;;;16.47;11.70;;;16.50;99.90;;;;;;5033463;28;20179;-76
2021/06/10 03:16:49;;;;;;;16.83;11.40;;;16.40;99.90;;;;;;5033393;28;20269;-75
2021/06/10 03:19:15;;;;;;;18.47;12.60;;;16.40;99.90;;;;;;5033026;28;20274;-75
2021/06/10 03:21:41;;;;;;;19.07;12.43;;;16.30;99.90;;;;;;5033400;28;20595;-75
2021/06/10 03:24:07;;;;;;;19.00;12.43;;;16.30;99.90;;;;;;5030952;28;20277;-75
2021/06/10 03:26:34;;;;;;;18.57;13.13;;;16.30;99.90;;;;;;5049741;28;20270;-76
2021/06/10 03:29:01;;;;;;;18.73;12.57;;;16.30;99.90;;;;;;5032947;28;20202;-76
2021/06/10 03:31:27;;;;;;;17.87;11.97;;;16.30;99.90;;;;;;5032718;28;20281;-75
2021/06/10 03:33:52;;;;;;;19.73;13.00;;;16.30;99.90;;;;;;5049556;28;20178;-76
2021/06/10 03:36:18;;;;;;;18.00;11.60;;;16.30;99.90;;;;;;5049595;28;20228;-76
2021/06/10 03:38:44;;;;;;;18.73;12.57;;;16.20;99.90;;;;;;5049459;28;20285;-75
2021/06/10 03:41:11;;;;;;;19.97;13.97;;;16.20;99.90;;;;;;5049110;28;20182;-75
2021/06/10 03:43:37;;;;;;;19.20;13.53;;;16.20;99.90;;;;;;5049176;28;20549;-75
2021/06/10 03:46:07;;;;;;;20.27;13.20;;;16.20;99.90;;;;;;5049369;28;20174;-76
2021/06/10 03:48:33;;;;;;;17.63;13.10;;;16.20;99.90;;;;;;5049210;28;20206;-75
2021/06/10 03:50:59;;;;;;;20.20;13.27;;;16.20;99.90;;;;;;5032267;28;20218;-76
2021/06/10 03:53:24;;;;;;;18.83;12.77;;;16.20;99.90;;;;;;5049194;28;20262;-76
2021/06/10 03:55:50;;;;;;;18.00;12.97;;;16.20;99.90;;;;;;5049123;28;20662;-75
2021/06/10 03:58:15;;;;;;;20.13;12.70;;;16.20;99.90;;;;;;5032234;28;20188;-75
2021/06/10 04:00:41;;;;;;;18.27;12.70;;;16.20;99.90;;;;;;5032115;28;20194;-75
2021/06/10 04:03:07;;;;;;;20.23;14.00;;;16.20;99.90;;;;;;5032359;28;20196;-76
2021/06/10 04:05:32;;;;;;;18.57;12.50;;;16.20;99.90;;;;;;5052238;28;20200;-75
2021/06/10 04:07:58;;;;;;;20.20;13.47;;;16.20;99.90;;;;;;5052256;28;20177;-73
2021/06/10 04:10:24;;;;;;;19.77;13.23;;;16.30;99.90;;;;;;5062780;22;20730;-77
2021/06/10 04:12:50;;;;;;;17.83;12.60;;;16.30;99.90;;;;;;5035359;28;20179;-78
2021/06/10 04:15:15;;;;;;;20.17;12.83;;;16.30;99.90;;;;;;5035377;28;20175;-78
2021/06/10 04:17:41;;;;;;;21.10;13.27;;;16.40;99.90;;;;;;5050929;28;20171;-77
2021/06/10 04:20:07;;;;;;;19.23;13.33;;;16.40;99.90;;;;;;5018225;28;20206;-80
2021/06/10 04:22:33;;;;;;;19.43;13.13;;;16.40;99.90;;;;;;5035372;28;20175;-80
2021/06/10 04:24:58;;;;;;;20.03;13.67;;;16.50;99.90;;;;;;5018169;28;20688;-81
2021/06/10 04:27:24;;;;;;;20.13;13.00;;;16.50;99.90;;;;;;5035088;28;20520;-81
2021/06/10 04:29:49;;;;;;;21.20;13.83;;;16.50;99.90;;;;;;5017814;28;20720;-80
2021/06/10 04:32:15;;;;;;;20.03;14.00;;;16.60;99.90;;;;;;5018503;28;20586;-82
2021/06/10 04:34:41;;;;;;;20.30;14.27;;;16.60;99.90;;;;;;5034344;28;20179;-80
2021/06/10 04:37:06;;;;;;;19.07;13.03;;;16.70;99.90;;;;;;5034725;28;20167;-81
2021/06/10 04:39:32;;;;;;;21.10;14.47;;;16.80;99.90;;;;;;5018205;28;20230;-79
2021/06/10 04:41:57;;;;;;;23.43;14.53;;;16.80;99.90;;;;;;5016699;28;20171;-79
2021/06/10 04:44:23;;;;;;;21.80;14.53;;;16.90;99.90;;;;;;5017102;28;20182;-80
2021/06/10 04:46:49;;;;;;;22.87;13.70;;;17.00;99.90;;;;;;5033058;28;20228;-79
2021/06/10 04:49:15;;;;;;;19.93;14.53;;;17.10;99.90;;;;;;5033029;28;20271;-80
2021/06/10 04:51:41;;;;;;;24.63;16.00;;;17.30;99.90;;;;;;5016431;28;20591;-78
2021/06/10 04:54:06;;;;;;;23.97;15.33;;;17.40;99.90;;;;;;5033202;28;20684;-79
2021/06/10 04:56:32;;;;;;;23.27;16.20;;;17.40;99.90;;;;;;5032663;28;20171;-78
2021/06/10 04:58:57;;;;;;;23.33;15.83;;;17.60;99.90;;;;;;5031954;28;20674;-78
2021/06/10 05:01:24;;;;;;;23.50;15.87;;;17.70;99.90;;;;;;5015747;28;20187;-78
2021/06/10 05:03:49;;;;;;;24.50;16.13;;;17.70;99.90;;;;;;5015542;28;20546;-77
2021/06/10 05:06:15;;;;;;;22.73;15.40;;;17.70;99.90;;;;;;5015612;28;20192;-78
2021/06/10 05:08:40;;;;;;;23.57;15.27;;;17.70;99.90;;;;;;5015241;28;20553;-77
2021/06/10 05:11:06;;;;;;;23.63;16.37;;;17.70;99.90;;;;;;5014995;28;20667;-77
2021/06/10 05:13:31;;;;;;;23.70;15.97;;;17.70;99.90;;;;;;5031650;28;20224;-77
2021/06/10 05:15:57;;;;;;;23.00;16.47;;;17.80;99.90;;;;;;5013637;28;20613;-77
2021/06/10 05:18:22;;;;;;;23.57;15.77;;;18.00;99.90;;;;;;5015825;28;20183;-78
2021/06/10 05:20:48;;;;;;;23.93;16.30;;;18.10;99.90;;;;;;5017434;28;20202;-78
2021/06/10 05:23:14;;;;;;;22.77;14.63;;;18.30;99.90;;;;;;5033976;28;20186;-78
2021/06/10 05:25:39;;;;;;;22.50;15.00;;;18.40;99.90;;;;;;5017211;28;20201;-77
2021/06/10 05:28:05;;;;;;;23.43;15.43;;;18.60;99.90;;;;;;5034550;28;20267;-79
2021/06/10 05:30:30;;;;;;;22.30;14.77;;;18.80;99.90;;;;;;5035161;28;20256;-80
2021/06/10 05:32:56;;;;;;;25.77;15.87;;;18.80;99.90;;;;;;5035884;28;20593;-81
2021/06/10 05:35:22;;;;;;;22.00;15.07;;;19.00;99.90;;;;;;5018778;28;20171;-81
2021/06/10 05:37:47;;;;;;;22.33;15.13;;;19.00;99.90;;;;;;5019809;28;20178;-80
2021/06/10 05:40:13;;;;;;;24.73;15.10;;;19.30;99.90;;;;;;5035268;28;20610;-79
2021/06/10 05:42:39;;;;;;;22.17;14.33;;;19.70;99.90;;;;;;5035745;28;20201;-79
2021/06/10 05:45:05;;;;;;;20.90;14.47;;;20.60;99.90;;;;;;5036294;28;20178;-79
2021/06/10 05:47:31;;;;;;;21.07;13.97;;;21.30;99.90;;;;;;5036087;28;20224;-79
2021/06/10 05:49:56;;;;;;;19.70;13.50;;;21.80;99.90;;;;;;5042217;28;20191;-79
2021/06/10 05:52:23;;;;;;;20.13;13.40;;;22.00;99.90;;;;;;5040235;28;20206;-78
2021/06/10 05:54:49;;;;;;;18.37;12.67;;;22.40;99.90;;;;;;5052485;28;20195;-79
2021/06/10 05:57:15;;;;;;;20.40;12.87;;;22.70;99.90;;;;;;5049675;28;20178;-78
2021/06/10 05:59:40;;;;;;;20.47;13.13;;;22.80;99.90;;;;;;5020025;28;20233;-78
2021/06/10 06:02:06;;;;;;;17.77;12.83;;;23.20;99.90;;;;;;5017355;28;20187;-78
2021/06/10 06:04:32;;;;;;;19.93;12.23;;;23.70;99.90;;;;;;5017363;28;20598;-78
2021/06/10 06:06:57;;;;;;;17.13;11.97;;;24.20;99.90;;;;;;5033381;28;20213;-78
2021/06/10 06:09:23;;;;;;;18.63;12.37;;;24.20;99.90;;;;;;5016928;28;20215;-78
2021/06/10 06:11:51;;;;;;;16.63;12.00;;;24.50;99.90;;;;;;5018045;28;20707;-79
2021/06/10 06:14:18;;;;;;;18.27;12.03;;;24.70;99.90;;;;;;5032883;28;20167;-78
2021/06/10 06:16:44;;;;;;;18.03;12.50;;;24.80;99.90;;;;;;5033495;28;20171;-78
2021/06/10 06:19:13;;;;;;;18.10;12.73;;;25.10;99.90;;;;;;5033185;28;20284;-78
2021/06/10 06:21:40;;;;;;;17.35;11.48;;;25.50;99.90;;;;;;5033077;28;20654;-78
2021/06/10 06:24:06;;;;;;;15.32;11.23;;;26.30;99.90;;;;;;5032970;28;20178;-78
2021/06/10 06:26:32;;;;;;;14.45;10.82;;;26.80;99.90;;;;;;5033132;28;20178;-78
2021/06/10 06:29:02;;;;;;;15.55;11.05;;;26.80;99.90;;;;;;5016748;28;20202;-78
2021/06/10 06:31:28;;;;;;;16.00;11.57;;;26.60;99.90;;;;;;5033701;28;20195;-81
2021/06/10 06:33:53;;;;;;;16.35;10.90;;;26.40;99.90;;;;;;5035047;28;20171;-80
2021/06/10 06:36:19;;;;;;;17.80;11.35;;;26.30;99.90;;;;;;5034649;28;20174;-79
2021/06/10 06:38:45;;;;;;;16.27;10.45;;;26.00;99.90;;;;;;5035102;28;20196;-77
2021/06/10 06:41:11;;;;;;;14.53;10.13;;;25.70;99.90;;;;;;5033802;28;20262;-77
2021/06/10 06:43:37;;;;;;;12.85;9.63;;;25.40;99.90;;;;;;5034051;28;20585;-77
2021/06/10 06:46:09;;;;;;;12.83;9.00;;;25.10;99.90;;;;;;5033795;28;20179;-77
2021/06/10 06:48:35;;;;;;;14.30;7.93;;;25.00;99.90;;;;;;5034124;28;20243;-79
2021/06/10 06:51:01;;;;;;;11.53;8.30;;;25.20;99.90;;;;;;5033589;28;20199;-78
2021/06/10 06:53:29;;;;;;;11.40;8.00;;;25.40;99.90;;;;;;5033691;28;20641;-78
2021/06/10 06:55:56;;;;;;;12.70;7.50;;;25.40;99.90;;;;;;5034976;28;20167;-78
2021/06/10 06:58:21;;;;;;;13.40;8.20;;;25.20;99.90;;;;;;5034683;28;20167;-79
2021/06/10 07:00:47;;;;;;;11.63;7.90;;;25.30;99.90;;;;;;5018030;28;20199;-79
2021/06/10 07:03:12;;;;;;;11.87;7.03;;;25.50;99.90;;;;;;5018106;28;20183;-78
2021/06/10 07:05:38;;;;;;;10.80;6.63;;;25.50;99.90;;;;;;5034284;28;20703;-78
2021/06/10 07:08:04;;;;;;;10.40;7.20;;;25.60;99.90;;;;;;5034158;28;20182;-78
2021/06/10 07:10:29;;;;;;;9.23;6.73;;;25.50;99.90;;;;;;5016856;28;20214;-78
2021/06/10 07:12:55;;;;;;;11.37;7.27;;;25.60;99.90;;;;;;5031754;28;20171;-78
2021/06/10 07:15:21;;;;;;;9.27;6.47;;;25.40;99.90;;;;;;5031660;28;20175;-77
2021/06/10 07:17:46;;;;;;;6.90;4.70;;;25.30;99.90;;;;;;5015322;28;20614;-78
2021/06/10 07:20:13;;;;;;;6.30;4.80;;;25.80;99.90;;;;;;5014706;28;20191;-78
2021/06/10 07:22:38;;;;;;;5.22;4.15;;;26.10;99.90;;;;;;5015136;28;20179;-79
2021/06/10 07:25:05;;;;;;;5.63;3.90;;;26.40;99.90;;;;;;5031902;28;20250;-79
2021/06/10 07:27:31;;;;;;;5.95;3.63;;;26.70;99.90;;;;;;5032643;28;20171;-79
2021/06/10 07:29:58;;;;;;;4.78;3.85;;;27.00;99.90;;;;;;5033732;28;20253;-78
2021/06/10 07:32:24;;;;;;;4.82;3.88;;;27.10;99.90;;;;;;5033875;28;20194;-79
2021/06/10 07:34:49;;;;;;;4.95;3.90;;;27.30;99.90;;;;;;5016777;28;20228;-78
2021/06/10 07:37:15;;;;;;;5.82;4.00;;;27.70;99.90;;;;;;5033446;28;20171;-78
2021/06/10 07:39:41;;;;;;;5.57;3.50;;;27.50;99.90;;;;;;5016540;28;20195;-78
2021/06/10 07:42:07;;;;;;;6.32;4.30;;;27.20;99.90;;;;;;5016797;28;20265;-79
2021/06/10 07:44:32;;;;;;;6.53;4.37;;;26.80;99.90;;;;;;5033415;28;20641;-78
2021/06/10 07:46:58;;;;;;;6.45;4.40;;;26.50;99.90;;;;;;5016293;28;20198;-78
2021/06/10 07:49:23;;;;;;;4.75;3.58;;;26.30;99.90;;;;;;5016278;28;20198;-78
2021/06/10 07:51:49;;;;;;;6.50;3.92;;;26.30;99.90;;;;;;5033005;28;20211;-78
2021/06/10 07:54:15;;;;;;;5.93;4.50;;;26.50;99.90;;;;;;5016468;28;20170;-79
2021/06/10 07:56:40;;;;;;;6.47;4.72;;;26.50;99.90;;;;;;5016287;28;20171;-79
2021/06/10 07:59:06;;;;;;;4.78;3.35;;;26.50;99.90;;;;;;5032771;28;20195;-78
2021/06/10 08:01:32;;;;;;;4.57;3.50;;;26.50;99.90;;;;;;5032850;28;20171;-78
2021/06/10 08:03:57;;;;;;;4.20;3.08;;;26.40;99.90;;;;;;5016215;28;20197;-78
2021/06/10 08:06:23;;;;;;;4.72;3.70;;;26.30;99.90;;;;;;5033659;28;20179;-80
2021/06/10 08:08:49;;;;;;;5.32;3.38;;;26.20;99.90;;;;;;5017343;28;20179;-79
2021/06/10 08:11:14;;;;;;;3.88;3.35;;;26.30;99.90;;;;;;5033401;28;20198;-79
2021/06/10 08:13:40;;;;;;;4.43;3.00;;;26.30;99.90;;;;;;5033620;28;20175;-79
2021/06/10 08:16:05;;;;;;;4.35;2.80;;;26.30;99.90;;;;;;5033282;28;20201;-80
2021/06/10 08:18:31;;;;;;;2.72;2.20;;;26.20;99.90;;;;;;5033363;28;20178;-79
2021/06/10 08:20:57;;;;;;;3.23;1.87;;;26.00;99.90;;;;;;5034176;28;20256;-80
2021/06/10 08:23:24;;;;;;;1.60;1.40;;;26.00;99.90;;;;;;5034070;28;20638;-79
2021/06/10 08:25:50;;;;;;;2.00;1.57;;;26.00;99.90;;;;;;5017718;28;20186;-78
2021/06/10 08:28:15;;;;;;;1.50;1.17;;;26.10;99.90;;;;;;5016435;28;20179;-79
2021/06/10 08:30:41;;;;;;;1.73;1.20;;;26.30;99.90;;;;;;5032290;28;20685;-79
2021/06/10 08:33:07;;;;;;;1.98;1.40;;;26.70;99.90;;;;;;5016260;28;20349;-78
2021/06/10 08:35:33;;;;;;;1.70;1.13;;;26.70;99.90;;;;;;5032952;28;20175;-78
2021/06/10 08:38:00;;;;;;;2.17;1.20;;;26.70;99.90;;;;;;5017139;28;20583;-79
2021/06/10 08:40:25;;;;;;;1.83;1.27;;;26.50;99.90;;;;;;5032533;28;20286;-80
2021/06/10 08:42:51;;;;;;;2.13;1.30;;;26.50;99.90;;;;;;5033183;28;20669;-81
2021/06/10 08:45:17;;;;;;;2.47;1.23;;;26.40;99.90;;;;;;5016026;28;21009;-78
2021/06/10 08:47:47;;;;;;;4.93;1.70;;;26.40;99.90;;;;;;5032028;28;20189;-78
2021/06/10 08:50:18;;;;;;;2.08;1.60;;;26.30;99.90;;;;;;5031645;28;20218;-79
2021/06/10 08:52:43;;;;;;;1.83;1.45;;;26.40;99.90;;;;;;5016065;28;20175;-77
2021/06/10 08:55:09;;;;;;;3.55;1.67;;;26.30;99.90;;;;;;5031867;28;20178;-79
2021/06/10 08:57:35;;;;;;;1.50;1.30;;;26.50;99.90;;;;;;5015525;28;20171;-78
2021/06/10 09:00:01;;;;;;;2.08;1.75;;;26.60;99.90;;;;;;5031088;28;20244;-78
2021/06/10 09:02:27;;;;;;;2.58;1.92;;;26.50;99.90;;;;;;5015759;28;20336;-80
2021/06/10 09:04:59;;;;;;;2.83;1.65;;;26.50;99.90;;;;;;5031853;28;20600;-80
2021/06/10 09:07:34;;;;;;;2.17;1.80;;;26.40;99.90;;;;;;5016409;28;20179;-78
2021/06/10 09:10:00;;;;;;;3.10;2.00;;;26.30;99.90;;;;;;5032107;28;20229;-79
2021/06/10 09:12:25;;;;;;;2.15;1.77;;;26.50;99.90;;;;;;5031880;28;20564;-78
2021/06/10 09:14:57;;;;;;;2.67;1.80;;;26.60;99.90;;;;;;5032189;28;20560;-78
2021/06/10 09:17:27;;;;;;;2.58;1.73;;;26.70;99.90;;;;;;5032166;28;20178;-78
2021/06/10 09:19:52;;;;;;;2.28;1.75;;;26.70;99.90;;;;;;5015409;28;20191;-78
2021/06/10 09:22:19;;;;;;;2.70;1.50;;;26.70;99.90;;;;;;5014816;28;20182;-78
2021/06/10 09:24:44;;;;;;;2.50;1.60;;;26.90;99.90;;;;;;5031226;28;20222;-78
2021/06/10 09:27:11;;;;;;;2.55;1.60;;;26.90;99.90;;;;;;5033375;28;20187;-78
2021/06/10 09:29:50;;;;;;;2.13;1.83;;;26.90;99.90;;;;;;5015334;28;20257;-79
2021/06/10 09:32:27;;;;;;;1.90;1.67;;;26.80;99.90;;;;;;5032559;28;20671;-77
2021/06/10 09:35:01;;;;;;;2.40;1.83;;;26.70;99.90;;;;;;5032552;28;20185;-78
2021/06/10 09:37:35;;;;;;;4.43;1.98;;;26.60;99.90;;;;;;5029013;28;20178;-78
2021/06/10 09:40:07;;;;;;;2.00;1.55;;;26.20;99.90;;;;;;5031560;28;20222;-78
2021/06/10 09:42:35;;;;;;;3.83;1.80;;;26.20;99.90;;;;;;5013203;28;20183;-78
2021/06/10 09:45:01;;;;;;;1.77;1.35;;;26.20;99.90;;;;;;5015899;28;20201;-78
2021/06/10 09:47:34;;;;;;;2.65;1.55;;;26.10;99.90;;;;;;5032100;28;20549;-78
2021/06/10 09:50:30;;;;;;;3.53;1.88;;;26.10;99.90;;;;;;5014672;28;20686;-78
2021/06/10 09:53:17;;;;;;;2.47;1.52;;;26.10;99.90;;;;;;5030946;28;20205;-78
2021/06/10 09:55:45;;;;;;;2.38;1.55;;;26.20;99.90;;;;;;5031248;28;20228;-78
2021/06/10 09:58:14;;;;;;;2.35;1.70;;;26.10;99.90;;;;;;5030846;28;20225;-78
2021/06/10 10:00:53;;;;;;;2.65;1.80;;;26.00;99.90;;;;;;5029290;28;20205;-78
2021/06/10 10:03:28;;;;;;;1.75;1.30;;;26.00;99.90;;;;;;5031736;28;20178;-78
2021/06/10 10:05:57;;;;;;;2.47;1.30;;;26.10;99.90;;;;;;5025523;28;20657;-79
2021/06/10 10:08:23;;;;;;;1.90;1.50;;;26.20;99.90;;;;;;5015001;28;20202;-78
2021/06/10 10:10:48;;;;;;;1.75;1.50;;;26.20;99.90;;;;;;5055348;22;20234;-79
2021/06/10 10:13:16;;;;;;;3.42;1.50;;;26.30;99.90;;;;;;5034831;28;20234;-77
2021/06/10 10:15:43;;;;;;;3.55;1.70;;;26.40;99.90;;;;;;5012011;28;20680;-77
2021/06/10 10:18:09;;;;;;;1.92;1.60;;;26.40;99.90;;;;;;5037494;28;20186;-77
2021/06/10 10:20:35;;;;;;;3.90;1.80;;;26.40;99.90;;;;;;5019689;28;20210;-77
2021/06/10 10:23:01;;;;;;;1.77;1.67;;;26.40;99.90;;;;;;5033098;28;20179;-78
2021/06/10 10:25:26;;;;;;;1.27;1.15;;;26.50;99.90;;;;;;5008506;28;20171;-78
2021/06/10 10:27:52;;;;;;;3.33;1.63;;;26.40;99.90;;;;;;5026732;28;20222;-78
2021/06/10 10:30:21;;;;;;;1.90;1.70;;;26.50;99.90;;;;;;5011308;28;20207;-77
2021/06/10 10:32:46;;;;;;;2.30;1.73;;;26.40;99.90;;;;;;5032951;28;20182;-76
2021/06/10 10:35:21;;;;;;;2.35;1.80;;;26.20;99.90;;;;;;5035354;28;20160;-76
2021/06/10 10:37:50;;;;;;;2.58;1.20;;;26.30;99.90;;;;;;5035348;28;20661;-76
2021/06/10 10:40:27;;;;;;;1.65;1.30;;;26.40;99.90;;;;;;5033763;28;20191;-76
2021/06/10 10:42:54;;;;;;;2.42;1.67;;;26.40;99.90;;;;;;5034629;28;20167;-77
2021/06/10 10:45:26;;;;;;;1.98;1.60;;;26.40;99.90;;;;;;5033914;28;20175;-76
2021/06/10 10:50:35;;;;;;;2.33;1.52;;;26.30;99.90;;;;;;5039119;28;20187;-78
2021/06/10 10:53:01;;;;;;;1.80;1.42;;;26.30;99.90;;;;;;5022322;28;20174;-78
2021/06/10 10:55:31;;;;;;;1.55;1.17;;;26.20;99.90;;;;;;5037271;28;20533;-77
2021/06/10 10:58:07;;;;;;;1.73;1.40;;;26.30;99.90;;;;;;5031446;28;20163;-78
2021/06/10 11:00:48;;;;;;;1.50;1.20;;;26.40;99.90;;;;;;5036611;28;20217;-78
2021/06/10 11:03:24;;;;;;;1.83;1.15;;;26.40;99.90;;;;;;5037340;28;20179;-78
2021/06/10 11:05:50;;;;;;;4.00;1.60;;;26.20;99.90;;;;;;5037273;28;20162;-78
2021/06/10 11:08:15;;;;;;;2.65;1.70;;;26.30;99.90;;;;;;5037477;28;20221;-78
2021/06/10 11:11:00;;;;;;;2.25;1.60;;;26.40;99.90;;;;;;5037106;28;20272;-78
2021/06/10 11:13:28;;;;;;;2.03;1.60;;;26.50;99.90;;;;;;5038886;28;20167;-78
2021/06/10 11:15:59;;;;;;;2.97;1.33;;;26.40;99.90;;;;;;5036709;28;20167;-79
2021/06/10 11:18:46;;;;;;;1.88;1.20;;;26.50;99.90;;;;;;5021334;28;20598;-78
2021/06/10 11:21:40;;;;;;;2.10;1.52;;;26.40;99.90;;;;;;5036689;28;20202;-78
2021/06/10 11:24:13;;;;;;;2.10;1.50;;;26.40;99.90;;;;;;5037061;28;20217;-78
2021/06/10 11:26:53;;;;;;;1.88;1.30;;;26.50;99.90;;;;;;5036576;28;20178;-78
2021/06/10 11:29:18;;;;;;;1.30;0.90;;;26.60;99.90;;;;;;5020509;28;20202;-78
2021/06/10 11:31:54;;;;;;;2.92;1.27;;;26.70;99.90;;;;;;5036874;28;20237;-78
2021/06/10 11:34:32;;;;;;;2.90;1.52;;;26.70;99.90;;;;;;5037638;28;20179;-76
2021/06/10 11:36:58;;;;;;;1.75;1.25;;;26.70;99.90;;;;;;5020498;28;20609;-77
2021/06/10 11:39:28;;;;;;;1.52;1.33;;;26.60;99.90;;;;;;5035913;28;20175;-77
2021/06/10 11:41:53;;;;;;;1.80;1.33;;;26.60;99.90;;;;;;5035557;28;20844;-78
2021/06/10 11:44:19;;;;;;;1.67;1.20;;;26.50;99.90;;;;;;5035186;28;20317;-76
2021/06/10 11:46:44;;;;;;;1.70;1.30;;;26.50;99.90;;;;;;5035192;28;20202;-77
2021/06/10 11:49:11;;;;;;;1.42;1.13;;;26.50;99.90;;;;;;5018573;28;20187;-77
2021/06/10 11:51:38;;;;;;;1.38;1.10;;;26.60;99.90;;;;;;5019931;28;20209;-77
2021/06/10 11:54:10;;;;;;;1.85;1.08;;;26.60;99.90;;;;;;5037276;28;20171;-77
2021/06/10 11:56:36;;;;;;;1.35;1.00;;;26.50;99.90;;;;;;5017881;28;20694;-77
2021/06/10 11:59:22;;;;;;;2.47;1.15;;;26.60;99.90;;;;;;5034260;28;20234;-77
2021/06/10 12:02:01;;;;;;;2.08;1.38;;;26.70;99.90;;;;;;5017034;28;20214;-76
2021/06/10 12:04:34;;;;;;;1.83;1.40;;;26.80;99.90;;;;;;5035517;28;20197;-77
2021/06/10 12:07:06;;;;;;;1.92;1.40;;;26.70;99.90;;;;;;5023037;28;20186;-78
2021/06/10 12:09:33;;;;;;;1.50;1.40;;;26.70;99.90;;;;;;5041186;28;20206;-78
2021/06/10 12:11:59;;;;;;;1.40;1.02;;;26.60;99.90;;;;;;5039533;28;20203;-77
2021/06/10 12:14:36;;;;;;;2.15;1.40;;;26.50;99.90;;;;;;5035280;28;20310;-78
2021/06/10 12:17:02;;;;;;;1.40;1.30;;;26.60;99.90;;;;;;5035386;28;20175;-78
2021/06/10 12:19:27;;;;;;;2.55;1.50;;;26.70;99.90;;;;;;5035840;28;20247;-77
2021/06/10 12:22:03;;;;;;;1.92;1.48;;;26.70;99.90;;;;;;5029285;28;20656;-77
2021/06/10 12:24:41;;;;;;;1.70;1.25;;;26.90;99.90;;;;;;5031590;28;20179;-77
2021/06/10 12:27:17;;;;;;;1.80;1.65;;;26.90;99.90;;;;;;5013445;28;20270;-76
2021/06/10 12:29:52;;;;;;;1.55;1.30;;;26.90;99.90;;;;;;5030104;28;20265;-76
2021/06/10 12:32:29;;;;;;;2.80;1.33;;;27.00;99.90;;;;;;5029541;28;20205;-75
2021/06/10 12:34:56;;;;;;;2.17;1.60;;;27.00;99.90;;;;;;5031508;28;20537;-74
2021/06/10 12:37:22;;;;;;;2.38;1.30;;;26.90;99.90;;;;;;5027645;28;20206;-74
2021/06/10 12:39:47;;;;;;;1.30;1.20;;;26.90;99.90;;;;;;5028452;28;20263;-74
2021/06/10 12:42:13;;;;;;;1.80;1.50;;;27.00;99.90;;;;;;5012782;28;20191;-74